Main page
METAR-TAF:

METAR-TAF

Airports :

Pointe-Noire, Congo

Pointe Noire Airport

latitude: 04-49S, longitude: 011-54E, elevation: 17 m

Current weather observation

The report was made 1 hour and 1 minutes ago, at 13:00 UTC
Wind 7 kt from the West/Southwest
Temperature 30°C
Humidity 70%
Pressure 1011 hPa
Visibility 10 km or more
Few clouds at a height of 1600 ft

METAR: FCPP 241300Z 25007KT 9999 FEW016 30/24 Q1011 NOSIG

Time: 15:01 (14:01 UTC)

Forecast

The report was made 3 hours and 1 minutes ago, at 11:00 UTC
Forecast valid from 24 at 12 UTC to 25 at 12 UTC
Wind 8 kt from the South/Southwest
Visibility: 9000 m
Scattered clouds at a height of 1600 ft
Few clouds at a height of 3000 ft, Cumulonimbus.
Becoming
from 24 at 19 UTC to 24 at 21 UTC
Scattered clouds at a height of 1800 ft

TAF: FCPP 241100Z 2412/2512 20008KT 9000 SCT016 FEW030CB BECMG 2419/2421 SCT018

Weather observations and forecasts of more than 4000 airports (METAR and TAF reports).

The available stations are represented by yellow and red dots on the map.

Hover mouse over dot to see the name of the station.

Then click to see weather observations and forecasts.

To change the map : click on the green buttons with a black cross to zoom in, on the green button with a dash to zoom out, or on the green arrows for adjacent maps.


METAR-TAF: